sensor_id;sensor_type;location;lat;lon;timestamp;P1;durP1;ratioP1;P2;durP2;ratioP2
19643;SDS011;9970;-36.854;174.870;2023-02-28T00:00:33;7.30;;;7.30;;
19643;SDS011;9970;-36.854;174.870;2023-02-28T00:03:06;7.60;;;7.60;;
19643;SDS011;9970;-36.854;174.870;2023-02-28T00:05:39;7.50;;;7.50;;
19643;SDS011;9970;-36.854;174.870;2023-02-28T00:08:12;8.20;;;8.10;;
19643;SDS011;9970;-36.854;174.870;2023-02-28T00:10:45;7.73;;;7.73;;
19643;SDS011;9970;-36.854;174.870;2023-02-28T00:13:18;8.40;;;8.30;;
19643;SDS011;9970;-36.854;174.870;2023-02-28T00:16:01;8.70;;;8.60;;
19643;SDS011;9970;-36.854;174.870;2023-02-28T00:18:36;7.70;;;7.70;;
19643;SDS011;9970;-36.854;174.870;2023-02-28T00:21:09;7.60;;;7.60;;
19643;SDS011;9970;-36.854;174.870;2023-02-28T00:23:42;5.80;;;5.80;;
19643;SDS011;9970;-36.854;174.870;2023-02-28T00:26:15;5.20;;;5.20;;
19643;SDS011;9970;-36.854;174.870;2023-02-28T00:28:48;5.57;;;5.57;;
19643;SDS011;9970;-36.854;174.870;2023-02-28T00:31:22;4.70;;;4.70;;
19643;SDS011;9970;-36.854;174.870;2023-02-28T00:33:55;5.60;;;5.60;;
19643;SDS011;9970;-36.854;174.870;2023-02-28T00:36:28;6.50;;;6.50;;
19643;SDS011;9970;-36.854;174.870;2023-02-28T00:39:01;6.60;;;6.60;;
19643;SDS011;9970;-36.854;174.870;2023-02-28T00:41:34;7.10;;;7.10;;
19643;SDS011;9970;-36.854;174.870;2023-02-28T00:44:10;7.20;;;7.20;;
19643;SDS011;9970;-36.854;174.870;2023-02-28T00:46:44;7.30;;;7.30;;
19643;SDS011;9970;-36.854;174.870;2023-02-28T00:49:16;7.50;;;7.50;;
19643;SDS011;9970;-36.854;174.870;2023-02-28T00:51:50;8.30;;;8.20;;
19643;SDS011;9970;-36.854;174.870;2023-02-28T00:54:23;7.87;;;7.77;;
19643;SDS011;9970;-36.854;174.870;2023-02-28T00:56:56;7.57;;;7.57;;
19643;SDS011;9970;-36.854;174.870;2023-02-28T00:59:30;6.80;;;6.80;;
19643;SDS011;9970;-36.854;174.870;2023-02-28T01:02:03;6.80;;;6.80;;
19643;SDS011;9970;-36.854;174.870;2023-02-28T01:04:36;6.60;;;6.60;;
19643;SDS011;9970;-36.854;174.870;2023-02-28T01:07:09;6.73;;;6.73;;
19643;SDS011;9970;-36.854;174.870;2023-02-28T01:09:43;5.73;;;5.73;;
19643;SDS011;9970;-36.854;174.870;2023-02-28T01:12:16;5.20;;;5.20;;
19643;SDS011;9970;-36.854;174.870;2023-02-28T01:14:49;5.57;;;5.57;;
19643;SDS011;9970;-36.854;174.870;2023-02-28T01:17:22;5.90;;;5.90;;
19643;SDS011;9970;-36.854;174.870;2023-02-28T01:19:55;5.90;;;5.90;;
19643;SDS011;9970;-36.854;174.870;2023-02-28T01:22:28;6.20;;;6.20;;
19643;SDS011;9970;-36.854;174.870;2023-02-28T01:25:01;6.20;;;6.20;;
19643;SDS011;9970;-36.854;174.870;2023-02-28T01:27:34;6.60;;;6.60;;
19643;SDS011;9970;-36.854;174.870;2023-02-28T01:30:09;6.90;;;6.90;;
19643;SDS011;9970;-36.854;174.870;2023-02-28T01:32:42;6.00;;;6.00;;
19643;SDS011;9970;-36.854;174.870;2023-02-28T01:35:16;6.73;;;6.73;;
19643;SDS011;9970;-36.854;174.870;2023-02-28T01:37:49;6.40;;;6.40;;
19643;SDS011;9970;-36.854;174.870;2023-02-28T01:40:23;6.60;;;6.60;;
19643;SDS011;9970;-36.854;174.870;2023-02-28T01:42:57;6.20;;;6.20;;
19643;SDS011;9970;-36.854;174.870;2023-02-28T01:45:30;6.20;;;6.20;;
19643;SDS011;9970;-36.854;174.870;2023-02-28T01:48:07;5.50;;;5.50;;
19643;SDS011;9970;-36.854;174.870;2023-02-28T01:50:42;5.60;;;5.60;;
19643;SDS011;9970;-36.854;174.870;2023-02-28T01:53:18;5.50;;;5.50;;
19643;SDS011;9970;-36.854;174.870;2023-02-28T01:55:52;5.50;;;5.50;;
19643;SDS011;9970;-36.854;174.870;2023-02-28T01:58:26;5.20;;;5.20;;
19643;SDS011;9970;-36.854;174.870;2023-02-28T02:00:59;5.00;;;5.00;;
19643;SDS011;9970;-36.854;174.870;2023-02-28T02:03:36;5.00;;;5.00;;
19643;SDS011;9970;-36.854;174.870;2023-02-28T02:06:09;4.70;;;4.70;;
19643;SDS011;9970;-36.854;174.870;2023-02-28T02:08:42;5.00;;;5.00;;
19643;SDS011;9970;-36.854;174.870;2023-02-28T02:11:16;5.20;;;5.20;;
19643;SDS011;9970;-36.854;174.870;2023-02-28T02:13:57;4.90;;;4.90;;
19643;SDS011;9970;-36.854;174.870;2023-02-28T02:16:59;5.00;;;5.00;;
19643;SDS011;9970;-36.854;174.870;2023-02-28T02:22:37;4.70;;;4.70;;
19643;SDS011;9970;-36.854;174.870;2023-02-28T02:25:32;4.80;;;4.80;;
19643;SDS011;9970;-36.854;174.870;2023-02-28T02:27:56;4.90;;;4.90;;
19643;SDS011;9970;-36.854;174.870;2023-02-28T02:36:21;5.23;;;5.23;;
19643;SDS011;9970;-36.854;174.870;2023-02-28T02:41:40;5.30;;;5.30;;
19643;SDS011;9970;-36.854;174.870;2023-02-28T02:47:03;5.10;;;5.10;;
19643;SDS011;9970;-36.854;174.870;2023-02-28T02:49:40;5.30;;;5.30;;
19643;SDS011;9970;-36.854;174.870;2023-02-28T02:52:16;4.60;;;4.60;;
19643;SDS011;9970;-36.854;174.870;2023-02-28T02:54:50;4.50;;;4.50;;
19643;SDS011;9970;-36.854;174.870;2023-02-28T02:57:27;4.80;;;4.80;;
19643;SDS011;9970;-36.854;174.870;2023-02-28T03:00:02;4.87;;;4.87;;
19643;SDS011;9970;-36.854;174.870;2023-02-28T03:02:37;4.70;;;4.70;;
19643;SDS011;9970;-36.854;174.870;2023-02-28T03:05:27;4.67;;;4.67;;
19643;SDS011;9970;-36.854;174.870;2023-02-28T03:08:02;5.03;;;5.03;;
19643;SDS011;9970;-36.854;174.870;2023-02-28T03:10:42;5.30;;;5.30;;
19643;SDS011;9970;-36.854;174.870;2023-02-28T03:13:20;5.23;;;5.23;;
19643;SDS011;9970;-36.854;174.870;2023-02-28T03:16:01;4.80;;;4.80;;
19643;SDS011;9970;-36.854;174.870;2023-02-28T03:24:21;5.00;;;5.00;;
19643;SDS011;9970;-36.854;174.870;2023-02-28T03:27:01;5.10;;;5.10;;
19643;SDS011;9970;-36.854;174.870;2023-02-28T03:29:37;5.40;;;5.40;;
19643;SDS011;9970;-36.854;174.870;2023-02-28T03:35:04;5.23;;;5.23;;
19643;SDS011;9970;-36.854;174.870;2023-02-28T03:37:37;5.50;;;5.50;;
19643;SDS011;9970;-36.854;174.870;2023-02-28T03:40:15;5.50;;;5.50;;
19643;SDS011;9970;-36.854;174.870;2023-02-28T03:42:51;5.10;;;5.10;;
19643;SDS011;9970;-36.854;174.870;2023-02-28T03:45:25;5.10;;;5.10;;
19643;SDS011;9970;-36.854;174.870;2023-02-28T03:48:01;5.17;;;5.17;;
19643;SDS011;9970;-36.854;174.870;2023-02-28T03:50:37;5.03;;;5.03;;
19643;SDS011;9970;-36.854;174.870;2023-02-28T03:53:16;5.20;;;5.20;;
19643;SDS011;9970;-36.854;174.870;2023-02-28T03:55:48;5.10;;;5.10;;
19643;SDS011;9970;-36.854;174.870;2023-02-28T03:58:30;5.40;;;5.40;;
19643;SDS011;9970;-36.854;174.870;2023-02-28T04:01:07;5.60;;;5.60;;
19643;SDS011;9970;-36.854;174.870;2023-02-28T04:03:45;5.50;;;5.50;;
19643;SDS011;9970;-36.854;174.870;2023-02-28T04:06:20;5.80;;;5.80;;
19643;SDS011;9970;-36.854;174.870;2023-02-28T04:08:54;5.90;;;5.90;;
19643;SDS011;9970;-36.854;174.870;2023-02-28T04:11:40;5.50;;;5.50;;
19643;SDS011;9970;-36.854;174.870;2023-02-28T04:14:14;5.47;;;5.47;;
19643;SDS011;9970;-36.854;174.870;2023-02-28T04:16:47;5.63;;;5.63;;
19643;SDS011;9970;-36.854;174.870;2023-02-28T04:19:20;5.70;;;5.70;;
19643;SDS011;9970;-36.854;174.870;2023-02-28T04:21:53;5.80;;;5.80;;
19643;SDS011;9970;-36.854;174.870;2023-02-28T04:24:30;5.90;;;5.90;;
19643;SDS011;9970;-36.854;174.870;2023-02-28T04:27:03;5.93;;;5.93;;
19643;SDS011;9970;-36.854;174.870;2023-02-28T04:29:36;5.80;;;5.80;;
19643;SDS011;9970;-36.854;174.870;2023-02-28T04:32:11;6.30;;;6.30;;
19643;SDS011;9970;-36.854;174.870;2023-02-28T04:34:44;6.10;;;6.10;;
19643;SDS011;9970;-36.854;174.870;2023-02-28T04:37:23;6.00;;;6.00;;
19643;SDS011;9970;-36.854;174.870;2023-02-28T04:39:57;6.10;;;6.10;;
19643;SDS011;9970;-36.854;174.870;2023-02-28T04:42:35;6.60;;;6.60;;
19643;SDS011;9970;-36.854;174.870;2023-02-28T04:45:08;6.30;;;6.30;;
19643;SDS011;9970;-36.854;174.870;2023-02-28T04:47:42;6.50;;;6.50;;
19643;SDS011;9970;-36.854;174.870;2023-02-28T04:50:16;6.40;;;6.40;;
19643;SDS011;9970;-36.854;174.870;2023-02-28T04:52:49;6.40;;;6.40;;
19643;SDS011;9970;-36.854;174.870;2023-02-28T04:55:23;6.53;;;6.53;;
19643;SDS011;9970;-36.854;174.870;2023-02-28T04:57:56;6.60;;;6.60;;
19643;SDS011;9970;-36.854;174.870;2023-02-28T05:00:29;6.60;;;6.60;;
19643;SDS011;9970;-36.854;174.870;2023-02-28T05:03:03;6.87;;;6.87;;
19643;SDS011;9970;-36.854;174.870;2023-02-28T05:05:36;7.20;;;7.20;;
19643;SDS011;9970;-36.854;174.870;2023-02-28T05:08:10;6.70;;;6.70;;
19643;SDS011;9970;-36.854;174.870;2023-02-28T05:10:43;6.50;;;6.50;;
19643;SDS011;9970;-36.854;174.870;2023-02-28T05:13:16;6.80;;;6.80;;
19643;SDS011;9970;-36.854;174.870;2023-02-28T05:15:49;6.70;;;6.70;;
19643;SDS011;9970;-36.854;174.870;2023-02-28T05:18:22;6.80;;;6.80;;
19643;SDS011;9970;-36.854;174.870;2023-02-28T05:20:54;7.00;;;7.00;;
19643;SDS011;9970;-36.854;174.870;2023-02-28T05:23:27;7.20;;;7.20;;
19643;SDS011;9970;-36.854;174.870;2023-02-28T05:26:00;7.30;;;7.30;;
19643;SDS011;9970;-36.854;174.870;2023-02-28T05:28:33;7.10;;;7.10;;
19643;SDS011;9970;-36.854;174.870;2023-02-28T05:31:07;6.60;;;6.60;;
19643;SDS011;9970;-36.854;174.870;2023-02-28T05:33:41;6.93;;;6.93;;
19643;SDS011;9970;-36.854;174.870;2023-02-28T05:36:14;6.80;;;6.80;;
19643;SDS011;9970;-36.854;174.870;2023-02-28T05:38:47;7.20;;;7.20;;
19643;SDS011;9970;-36.854;174.870;2023-02-28T05:41:21;7.23;;;7.23;;
19643;SDS011;9970;-36.854;174.870;2023-02-28T05:43:54;7.00;;;7.00;;
19643;SDS011;9970;-36.854;174.870;2023-02-28T05:46:31;7.30;;;7.30;;
19643;SDS011;9970;-36.854;174.870;2023-02-28T05:49:04;6.70;;;6.70;;
19643;SDS011;9970;-36.854;174.870;2023-02-28T05:51:37;6.90;;;6.90;;
19643;SDS011;9970;-36.854;174.870;2023-02-28T05:54:10;6.90;;;6.90;;
19643;SDS011;9970;-36.854;174.870;2023-02-28T05:56:43;6.70;;;6.70;;
19643;SDS011;9970;-36.854;174.870;2023-02-28T05:59:16;7.07;;;7.07;;
19643;SDS011;9970;-36.854;174.870;2023-02-28T06:01:49;7.30;;;7.30;;
19643;SDS011;9970;-36.854;174.870;2023-02-28T06:04:22;7.50;;;7.50;;
19643;SDS011;9970;-36.854;174.870;2023-02-28T06:06:56;7.20;;;7.20;;
19643;SDS011;9970;-36.854;174.870;2023-02-28T06:09:29;7.30;;;7.30;;
19643;SDS011;9970;-36.854;174.870;2023-02-28T06:12:03;6.93;;;6.93;;
19643;SDS011;9970;-36.854;174.870;2023-02-28T06:14:36;6.80;;;6.80;;
19643;SDS011;9970;-36.854;174.870;2023-02-28T06:17:10;6.80;;;6.80;;
19643;SDS011;9970;-36.854;174.870;2023-02-28T06:19:42;7.00;;;7.00;;
19643;SDS011;9970;-36.854;174.870;2023-02-28T06:22:15;7.00;;;7.00;;
19643;SDS011;9970;-36.854;174.870;2023-02-28T06:24:48;7.20;;;7.20;;
19643;SDS011;9970;-36.854;174.870;2023-02-28T06:27:22;7.10;;;7.10;;
19643;SDS011;9970;-36.854;174.870;2023-02-28T06:29:55;7.50;;;7.50;;
19643;SDS011;9970;-36.854;174.870;2023-02-28T06:32:28;7.50;;;7.50;;
19643;SDS011;9970;-36.854;174.870;2023-02-28T06:35:00;7.30;;;7.30;;
19643;SDS011;9970;-36.854;174.870;2023-02-28T06:37:34;6.80;;;6.80;;
19643;SDS011;9970;-36.854;174.870;2023-02-28T06:40:08;7.20;;;7.20;;
19643;SDS011;9970;-36.854;174.870;2023-02-28T06:42:42;7.10;;;7.10;;
19643;SDS011;9970;-36.854;174.870;2023-02-28T06:45:15;7.57;;;7.57;;
19643;SDS011;9970;-36.854;174.870;2023-02-28T06:47:48;7.40;;;7.40;;
19643;SDS011;9970;-36.854;174.870;2023-02-28T06:50:21;7.50;;;7.50;;
19643;SDS011;9970;-36.854;174.870;2023-02-28T06:52:54;7.40;;;7.40;;
19643;SDS011;9970;-36.854;174.870;2023-02-28T06:55:27;7.00;;;7.00;;
19643;SDS011;9970;-36.854;174.870;2023-02-28T06:58:00;7.10;;;7.10;;
19643;SDS011;9970;-36.854;174.870;2023-02-28T07:00:33;7.03;;;7.03;;
19643;SDS011;9970;-36.854;174.870;2023-02-28T07:03:06;7.40;;;7.40;;
19643;SDS011;9970;-36.854;174.870;2023-02-28T07:05:39;6.80;;;6.80;;
19643;SDS011;9970;-36.854;174.870;2023-02-28T07:08:12;7.50;;;7.50;;
19643;SDS011;9970;-36.854;174.870;2023-02-28T07:10:45;6.60;;;6.60;;
19643;SDS011;9970;-36.854;174.870;2023-02-28T07:13:18;7.40;;;7.40;;
19643;SDS011;9970;-36.854;174.870;2023-02-28T07:16:06;7.17;;;7.17;;
19643;SDS011;9970;-36.854;174.870;2023-02-28T07:18:39;8.90;;;8.80;;
19643;SDS011;9970;-36.854;174.870;2023-02-28T07:21:12;8.20;;;8.13;;
19643;SDS011;9970;-36.854;174.870;2023-02-28T07:23:45;8.10;;;8.00;;
19643;SDS011;9970;-36.854;174.870;2023-02-28T07:26:18;8.20;;;8.10;;
19643;SDS011;9970;-36.854;174.870;2023-02-28T07:28:51;7.80;;;7.80;;
19643;SDS011;9970;-36.854;174.870;2023-02-28T07:31:24;7.50;;;7.50;;
19643;SDS011;9970;-36.854;174.870;2023-02-28T07:33:57;7.80;;;7.70;;
19643;SDS011;9970;-36.854;174.870;2023-02-28T07:36:30;7.87;;;7.87;;
19643;SDS011;9970;-36.854;174.870;2023-02-28T07:39:03;7.90;;;7.80;;
19643;SDS011;9970;-36.854;174.870;2023-02-28T07:41:37;7.30;;;7.30;;
19643;SDS011;9970;-36.854;174.870;2023-02-28T07:44:11;7.70;;;7.70;;
19643;SDS011;9970;-36.854;174.870;2023-02-28T07:46:44;7.70;;;7.70;;
19643;SDS011;9970;-36.854;174.870;2023-02-28T07:49:17;7.80;;;7.70;;
19643;SDS011;9970;-36.854;174.870;2023-02-28T07:51:50;7.50;;;7.50;;
19643;SDS011;9970;-36.854;174.870;2023-02-28T07:54:24;8.03;;;7.93;;
19643;SDS011;9970;-36.854;174.870;2023-02-28T07:56:57;8.03;;;7.93;;
19643;SDS011;9970;-36.854;174.870;2023-02-28T07:59:30;7.90;;;7.90;;
19643;SDS011;9970;-36.854;174.870;2023-02-28T08:02:03;8.17;;;8.07;;
19643;SDS011;9970;-36.854;174.870;2023-02-28T08:04:36;7.77;;;7.77;;
19643;SDS011;9970;-36.854;174.870;2023-02-28T08:07:09;8.07;;;7.97;;
19643;SDS011;9970;-36.854;174.870;2023-02-28T08:09:44;7.40;;;7.40;;
19643;SDS011;9970;-36.854;174.870;2023-02-28T08:12:17;7.80;;;7.80;;
19643;SDS011;9970;-36.854;174.870;2023-02-28T08:14:50;7.70;;;7.70;;
19643;SDS011;9970;-36.854;174.870;2023-02-28T08:17:23;7.73;;;7.73;;
19643;SDS011;9970;-36.854;174.870;2023-02-28T08:19:56;8.00;;;8.00;;
19643;SDS011;9970;-36.854;174.870;2023-02-28T08:22:33;8.37;;;8.27;;
19643;SDS011;9970;-36.854;174.870;2023-02-28T08:25:06;7.90;;;7.90;;
19643;SDS011;9970;-36.854;174.870;2023-02-28T08:27:45;7.90;;;7.90;;
19643;SDS011;9970;-36.854;174.870;2023-02-28T08:30:14;7.20;;;7.20;;
19643;SDS011;9970;-36.854;174.870;2023-02-28T08:32:49;7.23;;;7.23;;
19643;SDS011;9970;-36.854;174.870;2023-02-28T08:35:22;7.50;;;7.50;;
19643;SDS011;9970;-36.854;174.870;2023-02-28T08:37:55;7.50;;;7.50;;
19643;SDS011;9970;-36.854;174.870;2023-02-28T08:40:28;7.80;;;7.80;;
19643;SDS011;9970;-36.854;174.870;2023-02-28T08:43:01;7.63;;;7.63;;
19643;SDS011;9970;-36.854;174.870;2023-02-28T08:45:34;7.70;;;7.70;;
19643;SDS011;9970;-36.854;174.870;2023-02-28T08:48:07;7.60;;;7.60;;
19643;SDS011;9970;-36.854;174.870;2023-02-28T08:50:44;7.90;;;7.90;;
19643;SDS011;9970;-36.854;174.870;2023-02-28T08:53:19;7.60;;;7.60;;
19643;SDS011;9970;-36.854;174.870;2023-02-28T08:55:57;7.50;;;7.50;;
19643;SDS011;9970;-36.854;174.870;2023-02-28T08:58:34;7.77;;;7.77;;
19643;SDS011;9970;-36.854;174.870;2023-02-28T09:01:07;7.07;;;7.07;;
19643;SDS011;9970;-36.854;174.870;2023-02-28T09:03:42;7.47;;;7.47;;
19643;SDS011;9970;-36.854;174.870;2023-02-28T09:06:16;7.80;;;7.80;;
19643;SDS011;9970;-36.854;174.870;2023-02-28T09:08:50;7.80;;;7.80;;
19643;SDS011;9970;-36.854;174.870;2023-02-28T09:11:23;8.30;;;8.20;;
19643;SDS011;9970;-36.854;174.870;2023-02-28T09:13:57;8.10;;;8.00;;
19643;SDS011;9970;-36.854;174.870;2023-02-28T09:16:30;7.80;;;7.80;;
19643;SDS011;9970;-36.854;174.870;2023-02-28T09:19:05;7.40;;;7.40;;
19643;SDS011;9970;-36.854;174.870;2023-02-28T09:21:43;7.30;;;7.30;;
19643;SDS011;9970;-36.854;174.870;2023-02-28T09:24:16;7.20;;;7.20;;
19643;SDS011;9970;-36.854;174.870;2023-02-28T09:26:50;7.77;;;7.77;;
19643;SDS011;9970;-36.854;174.870;2023-02-28T09:29:24;7.67;;;7.67;;
19643;SDS011;9970;-36.854;174.870;2023-02-28T09:31:57;7.70;;;7.70;;
19643;SDS011;9970;-36.854;174.870;2023-02-28T09:34:30;7.30;;;7.30;;
19643;SDS011;9970;-36.854;174.870;2023-02-28T09:37:04;7.20;;;7.20;;
19643;SDS011;9970;-36.854;174.870;2023-02-28T09:39:37;7.40;;;7.40;;
19643;SDS011;9970;-36.854;174.870;2023-02-28T09:42:21;7.40;;;7.40;;
19643;SDS011;9970;-36.854;174.870;2023-02-28T09:44:54;7.20;;;7.20;;
19643;SDS011;9970;-36.854;174.870;2023-02-28T09:47:30;7.60;;;7.60;;
19643;SDS011;9970;-36.854;174.870;2023-02-28T09:50:14;7.70;;;7.70;;
19643;SDS011;9970;-36.854;174.870;2023-02-28T09:52:59;7.60;;;7.60;;
19643;SDS011;9970;-36.854;174.870;2023-02-28T09:55:37;8.23;;;8.13;;
19643;SDS011;9970;-36.854;174.870;2023-02-28T09:58:20;8.40;;;8.30;;
19643;SDS011;9970;-36.854;174.870;2023-02-28T10:01:01;8.50;;;8.40;;
19643;SDS011;9970;-36.854;174.870;2023-02-28T10:03:43;9.00;;;8.90;;
19643;SDS011;9970;-36.854;174.870;2023-02-28T10:06:20;8.70;;;8.60;;
19643;SDS011;9970;-36.854;174.870;2023-02-28T10:08:57;8.83;;;8.73;;
19643;SDS011;9970;-36.854;174.870;2023-02-28T10:11:27;9.50;;;9.40;;
19643;SDS011;9970;-36.854;174.870;2023-02-28T10:14:07;9.27;;;9.17;;
19643;SDS011;9970;-36.854;174.870;2023-02-28T10:22:32;9.10;;;9.00;;
19643;SDS011;9970;-36.854;174.870;2023-02-28T10:25:28;8.80;;;8.70;;
19643;SDS011;9970;-36.854;174.870;2023-02-28T10:27:59;9.17;;;9.07;;
19643;SDS011;9970;-36.854;174.870;2023-02-28T10:30:31;9.00;;;8.90;;
19643;SDS011;9970;-36.854;174.870;2023-02-28T10:33:05;8.80;;;8.70;;
19643;SDS011;9970;-36.854;174.870;2023-02-28T10:35:39;8.60;;;8.50;;
19643;SDS011;9970;-36.854;174.870;2023-02-28T10:38:16;7.80;;;7.80;;
19643;SDS011;9970;-36.854;174.870;2023-02-28T10:41:06;7.70;;;7.70;;
19643;SDS011;9970;-36.854;174.870;2023-02-28T10:43:44;7.40;;;7.40;;
19643;SDS011;9970;-36.854;174.870;2023-02-28T10:46:17;7.40;;;7.40;;
19643;SDS011;9970;-36.854;174.870;2023-02-28T10:49:05;6.90;;;6.90;;
19643;SDS011;9970;-36.854;174.870;2023-02-28T10:51:39;7.20;;;7.20;;
19643;SDS011;9970;-36.854;174.870;2023-02-28T10:54:17;8.20;;;8.10;;
19643;SDS011;9970;-36.854;174.870;2023-02-28T10:57:15;8.40;;;8.30;;
19643;SDS011;9970;-36.854;174.870;2023-02-28T10:59:52;8.60;;;8.50;;
19643;SDS011;9970;-36.854;174.870;2023-02-28T11:02:36;8.30;;;8.20;;
19643;SDS011;9970;-36.854;174.870;2023-02-28T11:05:30;8.60;;;8.50;;
19643;SDS011;9970;-36.854;174.870;2023-02-28T11:08:06;8.10;;;8.10;;
19643;SDS011;9970;-36.854;174.870;2023-02-28T11:10:47;8.50;;;8.40;;
19643;SDS011;9970;-36.854;174.870;2023-02-28T11:13:29;8.60;;;8.50;;
19643;SDS011;9970;-36.854;174.870;2023-02-28T11:16:07;8.50;;;8.40;;
19643;SDS011;9970;-36.854;174.870;2023-02-28T11:18:42;8.40;;;8.30;;
19643;SDS011;9970;-36.854;174.870;2023-02-28T11:21:29;9.00;;;8.90;;
19643;SDS011;9970;-36.854;174.870;2023-02-28T11:24:01;9.00;;;8.90;;
19643;SDS011;9970;-36.854;174.870;2023-02-28T11:26:41;8.93;;;8.83;;
19643;SDS011;9970;-36.854;174.870;2023-02-28T11:29:12;9.40;;;9.30;;
19643;SDS011;9970;-36.854;174.870;2023-02-28T11:32:01;9.43;;;9.33;;
19643;SDS011;9970;-36.854;174.870;2023-02-28T11:34:39;9.40;;;9.30;;
19643;SDS011;9970;-36.854;174.870;2023-02-28T11:37:13;9.00;;;8.90;;
19643;SDS011;9970;-36.854;174.870;2023-02-28T11:39:48;9.10;;;9.00;;
19643;SDS011;9970;-36.854;174.870;2023-02-28T11:48:04;8.70;;;8.60;;
19643;SDS011;9970;-36.854;174.870;2023-02-28T12:05:08;9.73;;;9.63;;
19643;SDS011;9970;-36.854;174.870;2023-02-28T12:16:28;9.00;;;8.90;;
19643;SDS011;9970;-36.854;174.870;2023-02-28T12:19:16;8.60;;;8.50;;
19643;SDS011;9970;-36.854;174.870;2023-02-28T12:27:40;10.00;;;9.90;;
19643;SDS011;9970;-36.854;174.870;2023-02-28T12:33:05;9.93;;;9.83;;
19643;SDS011;9970;-36.854;174.870;2023-02-28T12:38:36;9.40;;;9.30;;
19643;SDS011;9970;-36.854;174.870;2023-02-28T12:41:13;9.60;;;9.50;;
19643;SDS011;9970;-36.854;174.870;2023-02-28T12:44:08;9.50;;;9.40;;
19643;SDS011;9970;-36.854;174.870;2023-02-28T12:46:47;8.90;;;8.80;;
19643;SDS011;9970;-36.854;174.870;2023-02-28T12:49:27;9.30;;;9.20;;
19643;SDS011;9970;-36.854;174.870;2023-02-28T12:52:01;9.60;;;9.50;;
19643;SDS011;9970;-36.854;174.870;2023-02-28T12:57:12;9.63;;;9.53;;
19643;SDS011;9970;-36.854;174.870;2023-02-28T12:59:53;9.20;;;9.10;;
19643;SDS011;9970;-36.854;174.870;2023-02-28T13:11:28;9.50;;;9.40;;
19643;SDS011;9970;-36.854;174.870;2023-02-28T13:13:58;9.30;;;9.20;;
19643;SDS011;9970;-36.854;174.870;2023-02-28T13:17:34;9.20;;;9.10;;
19643;SDS011;9970;-36.854;174.870;2023-02-28T13:19:20;9.20;;;9.10;;
19643;SDS011;9970;-36.854;174.870;2023-02-28T13:21:55;9.10;;;9.00;;
19643;SDS011;9970;-36.854;174.870;2023-02-28T13:24:38;8.70;;;8.60;;
19643;SDS011;9970;-36.854;174.870;2023-02-28T13:29:55;9.00;;;8.90;;
19643;SDS011;9970;-36.854;174.870;2023-02-28T13:32:29;9.20;;;9.10;;
19643;SDS011;9970;-36.854;174.870;2023-02-28T13:37:45;9.37;;;9.27;;
19643;SDS011;9970;-36.854;174.870;2023-02-28T13:43:07;9.00;;;8.90;;
19643;SDS011;9970;-36.854;174.870;2023-02-28T13:45:39;8.87;;;8.77;;
19643;SDS011;9970;-36.854;174.870;2023-02-28T13:48:20;9.20;;;9.10;;
19643;SDS011;9970;-36.854;174.870;2023-02-28T13:50:55;9.67;;;9.57;;
19643;SDS011;9970;-36.854;174.870;2023-02-28T13:53:37;8.80;;;8.70;;
19643;SDS011;9970;-36.854;174.870;2023-02-28T13:56:26;8.80;;;8.70;;
19643;SDS011;9970;-36.854;174.870;2023-02-28T13:59:16;8.73;;;8.63;;
19643;SDS011;9970;-36.854;174.870;2023-02-28T14:01:53;8.60;;;8.50;;
19643;SDS011;9970;-36.854;174.870;2023-02-28T14:07:25;9.30;;;9.20;;
19643;SDS011;9970;-36.854;174.870;2023-02-28T14:09:59;9.20;;;9.10;;
19643;SDS011;9970;-36.854;174.870;2023-02-28T14:15:39;8.90;;;8.80;;
19643;SDS011;9970;-36.854;174.870;2023-02-28T14:18:16;9.00;;;8.90;;
19643;SDS011;9970;-36.854;174.870;2023-02-28T14:20:56;8.70;;;8.60;;
19643;SDS011;9970;-36.854;174.870;2023-02-28T14:23:55;8.97;;;8.87;;
19643;SDS011;9970;-36.854;174.870;2023-02-28T14:37:40;9.10;;;9.00;;
19643;SDS011;9970;-36.854;174.870;2023-02-28T14:40:28;8.70;;;8.60;;
19643;SDS011;9970;-36.854;174.870;2023-02-28T14:42:57;8.33;;;8.23;;
19643;SDS011;9970;-36.854;174.870;2023-02-28T14:45:31;8.30;;;8.20;;
19643;SDS011;9970;-36.854;174.870;2023-02-28T14:48:08;8.03;;;8.00;;
19643;SDS011;9970;-36.854;174.870;2023-02-28T14:50:40;8.40;;;8.30;;
19643;SDS011;9970;-36.854;174.870;2023-02-28T14:53:18;8.10;;;8.00;;
19643;SDS011;9970;-36.854;174.870;2023-02-28T14:55:53;8.00;;;7.90;;
19643;SDS011;9970;-36.854;174.870;2023-02-28T14:58:32;8.30;;;8.20;;
19643;SDS011;9970;-36.854;174.870;2023-02-28T15:01:05;9.10;;;9.00;;
19643;SDS011;9970;-36.854;174.870;2023-02-28T15:03:39;8.30;;;8.20;;
19643;SDS011;9970;-36.854;174.870;2023-02-28T15:06:24;8.20;;;8.10;;
19643;SDS011;9970;-36.854;174.870;2023-02-28T15:09:13;8.30;;;8.20;;
19643;SDS011;9970;-36.854;174.870;2023-02-28T15:11:44;7.80;;;7.80;;
19643;SDS011;9970;-36.854;174.870;2023-02-28T15:14:20;7.87;;;7.87;;
19643;SDS011;9970;-36.854;174.870;2023-02-28T15:17:02;8.23;;;8.13;;
19643;SDS011;9970;-36.854;174.870;2023-02-28T15:19:50;7.67;;;7.67;;
19643;SDS011;9970;-36.854;174.870;2023-02-28T15:22:19;7.90;;;7.90;;
19643;SDS011;9970;-36.854;174.870;2023-02-28T15:24:57;7.57;;;7.57;;
19643;SDS011;9970;-36.854;174.870;2023-02-28T15:27:32;6.70;;;6.70;;
19643;SDS011;9970;-36.854;174.870;2023-02-28T15:30:29;7.10;;;7.10;;
19643;SDS011;9970;-36.854;174.870;2023-02-28T15:33:06;7.20;;;7.20;;
19643;SDS011;9970;-36.854;174.870;2023-02-28T15:36:02;7.30;;;7.30;;
19643;SDS011;9970;-36.854;174.870;2023-02-28T15:38:42;7.03;;;7.03;;
19643;SDS011;9970;-36.854;174.870;2023-02-28T15:41:28;7.37;;;7.37;;
19643;SDS011;9970;-36.854;174.870;2023-02-28T15:47:12;7.40;;;7.40;;
19643;SDS011;9970;-36.854;174.870;2023-02-28T15:50:06;7.10;;;7.10;;
19643;SDS011;9970;-36.854;174.870;2023-02-28T15:52:48;7.30;;;7.30;;
19643;SDS011;9970;-36.854;174.870;2023-02-28T15:55:38;7.20;;;7.20;;
19643;SDS011;9970;-36.854;174.870;2023-02-28T15:58:19;7.27;;;7.27;;
19643;SDS011;9970;-36.854;174.870;2023-02-28T16:01:08;7.20;;;7.20;;
19643;SDS011;9970;-36.854;174.870;2023-02-28T16:04:01;7.00;;;7.00;;
19643;SDS011;9970;-36.854;174.870;2023-02-28T16:09:34;6.90;;;6.90;;
19643;SDS011;9970;-36.854;174.870;2023-02-28T16:12:11;6.60;;;6.60;;
19643;SDS011;9970;-36.854;174.870;2023-02-28T16:14:43;6.30;;;6.30;;
19643;SDS011;9970;-36.854;174.870;2023-02-28T16:17:24;6.80;;;6.80;;
19643;SDS011;9970;-36.854;174.870;2023-02-28T16:19:53;5.70;;;5.70;;
19643;SDS011;9970;-36.854;174.870;2023-02-28T16:22:26;6.30;;;6.30;;
19643;SDS011;9970;-36.854;174.870;2023-02-28T16:24:59;6.10;;;6.10;;
19643;SDS011;9970;-36.854;174.870;2023-02-28T16:27:35;6.50;;;6.50;;
19643;SDS011;9970;-36.854;174.870;2023-02-28T16:30:24;6.70;;;6.70;;
19643;SDS011;9970;-36.854;174.870;2023-02-28T16:33:14;6.50;;;6.50;;
19643;SDS011;9970;-36.854;174.870;2023-02-28T16:36:02;6.50;;;6.50;;
19643;SDS011;9970;-36.854;174.870;2023-02-28T16:38:52;6.53;;;6.53;;
19643;SDS011;9970;-36.854;174.870;2023-02-28T16:41:42;6.70;;;6.70;;
19643;SDS011;9970;-36.854;174.870;2023-02-28T16:44:32;6.90;;;6.90;;
19643;SDS011;9970;-36.854;174.870;2023-02-28T16:47:10;6.80;;;6.80;;
19643;SDS011;9970;-36.854;174.870;2023-02-28T16:49:42;7.20;;;7.20;;
19643;SDS011;9970;-36.854;174.870;2023-02-28T16:52:16;7.10;;;7.10;;
19643;SDS011;9970;-36.854;174.870;2023-02-28T16:54:49;6.43;;;6.43;;
19643;SDS011;9970;-36.854;174.870;2023-02-28T16:57:25;6.97;;;6.97;;
19643;SDS011;9970;-36.854;174.870;2023-02-28T16:59:59;8.10;;;8.00;;
19643;SDS011;9970;-36.854;174.870;2023-02-28T17:02:32;6.10;;;6.10;;
19643;SDS011;9970;-36.854;174.870;2023-02-28T17:05:08;5.90;;;5.90;;